sensor_id;sensor_type;location;lat;lon;timestamp;pressure;altitude;pressure_sealevel;temperature;humidity
9281;BME280;4679;47.966;7.958;2024-01-07T08:17:26;96683.28;;;3.49;89.63
9281;BME280;4679;47.966;7.958;2024-01-07T08:19:28;96688.06;;;3.52;89.58
9281;BME280;4679;47.966;7.958;2024-01-07T08:21:31;96685.91;;;3.49;89.96
9281;BME280;4679;47.966;7.958;2024-01-07T08:23:32;96684.28;;;3.48;89.55
9281;BME280;4679;47.966;7.958;2024-01-07T08:25:34;96690.75;;;3.46;89.73
9281;BME280;4679;47.966;7.958;2024-01-07T08:27:35;96691.13;;;3.49;89.97
9281;BME280;4679;47.966;7.958;2024-01-07T08:29:37;96690.53;;;3.47;89.73
9281;BME280;4679;47.966;7.958;2024-01-07T08:31:40;96687.72;;;3.42;89.79
9281;BME280;4679;47.966;7.958;2024-01-07T08:33:43;96694.97;;;3.47;89.96
9281;BME280;4679;47.966;7.958;2024-01-07T08:35:45;96693.75;;;3.49;89.67
9281;BME280;4679;47.966;7.958;2024-01-07T08:37:46;96691.72;;;3.51;89.47
9281;BME280;4679;47.966;7.958;2024-01-07T08:39:48;96696.75;;;3.53;89.65
9281;BME280;4679;47.966;7.958;2024-01-07T08:41:50;96698.97;;;3.56;89.88
9281;BME280;4679;47.966;7.958;2024-01-07T08:43:52;96694.31;;;3.58;89.81
9281;BME280;4679;47.966;7.958;2024-01-07T08:45:54;96694.09;;;3.60;89.80
9281;BME280;4679;47.966;7.958;2024-01-07T08:47:55;96692.06;;;3.62;89.82
9281;BME280;4679;47.966;7.958;2024-01-07T08:49:58;96700.78;;;3.56;89.61
9281;BME280;4679;47.966;7.958;2024-01-07T08:52:00;96704.00;;;3.58;89.99
9281;BME280;4679;47.966;7.958;2024-01-07T08:54:01;96702.97;;;3.59;89.96
9281;BME280;4679;47.966;7.958;2024-01-07T08:56:03;96705.78;;;3.64;89.86
9281;BME280;4679;47.966;7.958;2024-01-07T08:58:07;96699.31;;;3.66;89.69
9281;BME280;4679;47.966;7.958;2024-01-07T09:00:09;96705.34;;;3.67;89.58
9281;BME280;4679;47.966;7.958;2024-01-07T09:02:11;96704.56;;;3.66;89.80
9281;BME280;4679;47.966;7.958;2024-01-07T09:04:12;96712.06;;;3.63;89.75
9281;BME280;4679;47.966;7.958;2024-01-07T09:06:15;96712.47;;;3.60;89.58
9281;BME280;4679;47.966;7.958;2024-01-07T09:08:17;96720.34;;;3.60;89.82
9281;BME280;4679;47.966;7.958;2024-01-07T09:10:18;96716.69;;;3.61;89.79
9281;BME280;4679;47.966;7.958;2024-01-07T09:12:19;96723.38;;;3.57;89.88
9281;BME280;4679;47.966;7.958;2024-01-07T09:14:21;96730.22;;;3.58;90.12
9281;BME280;4679;47.966;7.958;2024-01-07T09:16:23;96726.19;;;3.55;89.73
9281;BME280;4679;47.966;7.958;2024-01-07T09:18:23;96731.44;;;3.55;90.27
9281;BME280;4679;47.966;7.958;2024-01-07T09:20:25;96731.84;;;3.59;89.91
9281;BME280;4679;47.966;7.958;2024-01-07T09:22:28;96732.63;;;3.59;90.13
9281;BME280;4679;47.966;7.958;2024-01-07T09:24:28;96735.66;;;3.63;89.93
9281;BME280;4679;47.966;7.958;2024-01-07T09:26:30;96741.88;;;3.68;89.85
9281;BME280;4679;47.966;7.958;2024-01-07T09:28:32;96739.03;;;3.70;89.86
9281;BME280;4679;47.966;7.958;2024-01-07T09:30:33;96725.94;;;3.70;89.88
9281;BME280;4679;47.966;7.958;2024-01-07T09:32:35;96738.22;;;3.69;89.53
9281;BME280;4679;47.966;7.958;2024-01-07T09:34:37;96742.25;;;3.72;89.81
9281;BME280;4679;47.966;7.958;2024-01-07T09:36:37;96748.50;;;3.77;89.90
9281;BME280;4679;47.966;7.958;2024-01-07T09:38:41;96748.72;;;3.76;89.74
9281;BME280;4679;47.966;7.958;2024-01-07T09:40:42;96749.53;;;3.76;89.68
9281;BME280;4679;47.966;7.958;2024-01-07T09:42:43;96748.28;;;3.79;89.86
9281;BME280;4679;47.966;7.958;2024-01-07T09:44:45;96750.72;;;3.80;89.64
9281;BME280;4679;47.966;7.958;2024-01-07T09:46:48;96757.34;;;3.83;89.95
9281;BME280;4679;47.966;7.958;2024-01-07T09:48:51;96744.59;;;3.86;89.88
9281;BME280;4679;47.966;7.958;2024-01-07T09:50:53;96744.00;;;3.84;89.58
9281;BME280;4679;47.966;7.958;2024-01-07T09:52:56;96746.09;;;3.76;89.45
9281;BME280;4679;47.966;7.958;2024-01-07T09:55:03;96752.16;;;3.70;89.74
9281;BME280;4679;47.966;7.958;2024-01-07T09:57:05;96749.72;;;3.75;90.21
9281;BME280;4679;47.966;7.958;2024-01-07T09:59:07;96763.44;;;3.77;90.13
9281;BME280;4679;47.966;7.958;2024-01-07T10:01:10;96749.75;;;3.68;89.67
9281;BME280;4679;47.966;7.958;2024-01-07T10:03:11;96750.34;;;3.70;89.92
9281;BME280;4679;47.966;7.958;2024-01-07T10:05:14;96752.97;;;3.70;89.94
9281;BME280;4679;47.966;7.958;2024-01-07T10:07:14;96752.56;;;3.73;90.09
9281;BME280;4679;47.966;7.958;2024-01-07T10:09:17;96750.31;;;3.77;90.00
9281;BME280;4679;47.966;7.958;2024-01-07T10:11:21;96748.09;;;3.80;89.88
9281;BME280;4679;47.966;7.958;2024-01-07T10:13:22;96751.72;;;3.79;90.12
9281;BME280;4679;47.966;7.958;2024-01-07T10:15:24;96743.00;;;3.85;89.77
9281;BME280;4679;47.966;7.958;2024-01-07T10:17:25;96743.19;;;3.91;90.00
9281;BME280;4679;47.966;7.958;2024-01-07T10:19:28;96748.81;;;3.94;89.85
9281;BME280;4679;47.966;7.958;2024-01-07T10:21:28;96759.31;;;3.94;90.19
9281;BME280;4679;47.966;7.958;2024-01-07T10:23:33;96742.91;;;3.99;89.86
9281;BME280;4679;47.966;7.958;2024-01-07T10:25:35;96747.13;;;4.06;89.74
9281;BME280;4679;47.966;7.958;2024-01-07T10:27:38;96750.34;;;4.08;89.70
9281;BME280;4679;47.966;7.958;2024-01-07T10:29:40;96748.94;;;4.06;89.65
9281;BME280;4679;47.966;7.958;2024-01-07T10:31:41;96745.53;;;4.05;90.13
9281;BME280;4679;47.966;7.958;2024-01-07T10:33:44;96751.16;;;4.09;89.59
9281;BME280;4679;47.966;7.958;2024-01-07T10:35:51;96743.72;;;3.99;89.76
9281;BME280;4679;47.966;7.958;2024-01-07T10:37:54;96746.75;;;4.03;89.88
9281;BME280;4679;47.966;7.958;2024-01-07T10:39:58;96743.28;;;4.09;89.84
9281;BME280;4679;47.966;7.958;2024-01-07T10:42:03;96746.84;;;4.14;90.02
9281;BME280;4679;47.966;7.958;2024-01-07T10:44:06;96744.19;;;4.21;89.70
9281;BME280;4679;47.966;7.958;2024-01-07T10:46:09;96738.53;;;4.24;89.71
9281;BME280;4679;47.966;7.958;2024-01-07T10:48:13;96746.00;;;4.27;89.71
9281;BME280;4679;47.966;7.958;2024-01-07T10:50:16;96738.31;;;4.26;89.56
9281;BME280;4679;47.966;7.958;2024-01-07T10:52:19;96742.78;;;4.25;89.64
9281;BME280;4679;47.966;7.958;2024-01-07T10:54:21;96743.72;;;4.31;89.59
9281;BME280;4679;47.966;7.958;2024-01-07T10:56:29;96735.91;;;4.24;89.67
9281;BME280;4679;47.966;7.958;2024-01-07T10:58:36;96731.03;;;4.28;89.57
9281;BME280;4679;47.966;7.958;2024-01-07T11:00:40;96739.44;;;4.36;89.84
9281;BME280;4679;47.966;7.958;2024-01-07T11:02:51;96741.25;;;4.42;89.74
9281;BME280;4679;47.966;7.958;2024-01-07T11:05:05;96734.72;;;4.45;89.73
9281;BME280;4679;47.966;7.958;2024-01-07T11:07:16;96741.28;;;4.36;89.19
9281;BME280;4679;47.966;7.958;2024-01-07T11:09:23;96737.84;;;4.35;89.50
9281;BME280;4679;47.966;7.958;2024-01-07T11:11:35;96733.56;;;4.41;89.81
9281;BME280;4679;47.966;7.958;2024-01-07T11:13:38;96738.63;;;4.42;89.58
9281;BME280;4679;47.966;7.958;2024-01-07T11:15:54;96739.03;;;4.39;89.51
9281;BME280;4679;47.966;7.958;2024-01-07T11:17:55;96728.72;;;4.38;89.50
9281;BME280;4679;47.966;7.958;2024-01-07T11:19:59;96731.38;;;4.38;89.47
9281;BME280;4679;47.966;7.958;2024-01-07T11:22:24;96729.97;;;4.35;89.68
9281;BME280;4679;47.966;7.958;2024-01-07T11:24:40;96727.13;;;4.37;89.66
9281;BME280;4679;47.966;7.958;2024-01-07T11:26:42;96729.34;;;4.40;89.52
9281;BME280;4679;47.966;7.958;2024-01-07T11:28:48;96720.66;;;4.39;89.40
9281;BME280;4679;47.966;7.958;2024-01-07T11:30:55;96721.03;;;4.43;89.87
9281;BME280;4679;47.966;7.958;2024-01-07T11:32:58;96720.44;;;4.41;89.57
9281;BME280;4679;47.966;7.958;2024-01-07T11:35:00;96726.91;;;4.38;89.50
9281;BME280;4679;47.966;7.958;2024-01-07T11:37:04;96721.06;;;4.36;89.54
9281;BME280;4679;47.966;7.958;2024-01-07T11:39:09;96723.66;;;4.43;89.54
9281;BME280;4679;47.966;7.958;2024-01-07T11:41:12;96725.03;;;4.45;89.59
9281;BME280;4679;47.966;7.958;2024-01-07T11:43:14;96724.97;;;4.52;89.22
9281;BME280;4679;47.966;7.958;2024-01-07T11:45:16;96721.38;;;4.46;88.99
9281;BME280;4679;47.966;7.958;2024-01-07T11:47:19;96721.16;;;4.48;89.41
9281;BME280;4679;47.966;7.958;2024-01-07T11:49:22;96721.75;;;4.50;89.63
9281;BME280;4679;47.966;7.958;2024-01-07T11:51:24;96719.72;;;4.52;89.80
9281;BME280;4679;47.966;7.958;2024-01-07T11:53:25;96713.66;;;4.51;89.58
9281;BME280;4679;47.966;7.958;2024-01-07T11:55:28;96720.78;;;4.44;89.68
9281;BME280;4679;47.966;7.958;2024-01-07T11:57:33;96715.13;;;4.47;89.35
9281;BME280;4679;47.966;7.958;2024-01-07T11:59:34;96724.59;;;4.48;89.47
9281;BME280;4679;47.966;7.958;2024-01-07T12:01:36;96720.38;;;4.47;89.61
9281;BME280;4679;47.966;7.958;2024-01-07T12:03:40;96715.13;;;4.47;89.25
9281;BME280;4679;47.966;7.958;2024-01-07T12:05:42;96719.72;;;4.52;89.34
9281;BME280;4679;47.966;7.958;2024-01-07T12:07:44;96723.78;;;4.48;89.68
9281;BME280;4679;47.966;7.958;2024-01-07T12:09:45;96721.59;;;4.45;89.80
9281;BME280;4679;47.966;7.958;2024-01-07T12:11:46;96726.03;;;4.44;89.51
9281;BME280;4679;47.966;7.958;2024-01-07T12:13:49;96729.47;;;4.45;89.24
9281;BME280;4679;47.966;7.958;2024-01-07T12:15:50;96728.91;;;4.43;89.77
9281;BME280;4679;47.966;7.958;2024-01-07T12:17:55;96727.88;;;4.44;89.43
9281;BME280;4679;47.966;7.958;2024-01-07T12:19:58;96727.66;;;4.45;89.22
9281;BME280;4679;47.966;7.958;2024-01-07T12:22:03;96723.00;;;4.47;89.62
9281;BME280;4679;47.966;7.958;2024-01-07T12:24:05;96733.72;;;4.46;89.44
9281;BME280;4679;47.966;7.958;2024-01-07T12:26:08;96732.09;;;4.45;89.29
9281;BME280;4679;47.966;7.958;2024-01-07T12:28:09;96730.50;;;4.44;89.97
9281;BME280;4679;47.966;7.958;2024-01-07T12:30:12;96732.97;;;4.39;89.73
9281;BME280;4679;47.966;7.958;2024-01-07T12:32:15;96727.13;;;4.37;89.47
9281;BME280;4679;47.966;7.958;2024-01-07T12:34:17;96737.81;;;4.42;89.54
9281;BME280;4679;47.966;7.958;2024-01-07T12:36:21;96731.97;;;4.40;89.28
9281;BME280;4679;47.966;7.958;2024-01-07T12:38:24;96739.25;;;4.38;89.65
9281;BME280;4679;47.966;7.958;2024-01-07T12:40:25;96727.34;;;4.35;89.55
9281;BME280;4679;47.966;7.958;2024-01-07T12:42:27;96723.53;;;4.31;89.90
9281;BME280;4679;47.966;7.958;2024-01-07T12:44:29;96734.63;;;4.33;89.33
9281;BME280;4679;47.966;7.958;2024-01-07T12:46:30;96731.19;;;4.33;89.67
9281;BME280;4679;47.966;7.958;2024-01-07T12:48:32;96727.34;;;4.35;89.74
9281;BME280;4679;47.966;7.958;2024-01-07T12:50:33;96732.59;;;4.35;89.33
9281;BME280;4679;47.966;7.958;2024-01-07T12:52:36;96728.19;;;4.29;89.43
9281;BME280;4679;47.966;7.958;2024-01-07T12:54:38;96727.63;;;4.27;89.98
9281;BME280;4679;47.966;7.958;2024-01-07T12:56:39;96733.28;;;4.24;89.66
9281;BME280;4679;47.966;7.958;2024-01-07T12:58:41;96735.91;;;4.24;89.65
9281;BME280;4679;47.966;7.958;2024-01-07T13:00:42;96738.97;;;4.21;89.69
9281;BME280;4679;47.966;7.958;2024-01-07T13:02:44;96738.16;;;4.20;89.47
9281;BME280;4679;47.966;7.958;2024-01-07T13:04:46;96733.09;;;4.19;89.42
9281;BME280;4679;47.966;7.958;2024-01-07T13:06:47;96741.19;;;4.17;89.51
9281;BME280;4679;47.966;7.958;2024-01-07T13:08:50;96738.16;;;4.20;89.91
9281;BME280;4679;47.966;7.958;2024-01-07T13:10:52;96744.59;;;4.24;89.83
9281;BME280;4679;47.966;7.958;2024-01-07T13:12:54;96741.75;;;4.26;89.87
9281;BME280;4679;47.966;7.958;2024-01-07T13:14:56;96740.28;;;4.30;89.76
9281;BME280;4679;47.966;7.958;2024-01-07T13:16:57;96745.53;;;4.30;89.88
9281;BME280;4679;47.966;7.958;2024-01-07T13:18:58;96745.75;;;4.29;89.53
9281;BME280;4679;47.966;7.958;2024-01-07T13:21:00;96750.44;;;4.27;89.72
9281;BME280;4679;47.966;7.958;2024-01-07T13:23:02;96741.75;;;4.26;89.50
9281;BME280;4679;47.966;7.958;2024-01-07T13:25:07;96748.38;;;4.29;89.52
9281;BME280;4679;47.966;7.958;2024-01-07T13:27:08;96741.69;;;4.33;89.93
9281;BME280;4679;47.966;7.958;2024-01-07T13:29:10;96743.69;;;4.37;89.60
9281;BME280;4679;47.966;7.958;2024-01-07T13:31:12;96754.78;;;4.39;89.52
9281;BME280;4679;47.966;7.958;2024-01-07T13:33:14;96744.06;;;4.41;89.44
9281;BME280;4679;47.966;7.958;2024-01-07T13:35:18;96752.56;;;4.43;89.56
9281;BME280;4679;47.966;7.958;2024-01-07T13:37:19;96747.72;;;4.40;89.11
9281;BME280;4679;47.966;7.958;2024-01-07T13:39:22;96752.38;;;4.38;89.45
9281;BME280;4679;47.966;7.958;2024-01-07T13:41:25;96747.13;;;4.38;89.54
9281;BME280;4679;47.966;7.958;2024-01-07T13:43:29;96758.63;;;4.37;89.93
9281;BME280;4679;47.966;7.958;2024-01-07T13:45:30;96754.41;;;4.36;89.09
9281;BME280;4679;47.966;7.958;2024-01-07T13:47:31;96750.75;;;4.37;89.53
9281;BME280;4679;47.966;7.958;2024-01-07T13:49:32;96753.19;;;4.38;89.52
9281;BME280;4679;47.966;7.958;2024-01-07T13:51:34;96750.75;;;4.37;89.50
9281;BME280;4679;47.966;7.958;2024-01-07T13:53:37;96752.00;;;4.34;89.35
9281;BME280;4679;47.966;7.958;2024-01-07T13:55:38;96755.69;;;4.27;89.66
9281;BME280;4679;47.966;7.958;2024-01-07T13:57:41;96751.28;;;4.20;89.40
9281;BME280;4679;47.966;7.958;2024-01-07T13:59:42;96764.00;;;4.23;89.38
9281;BME280;4679;47.966;7.958;2024-01-07T14:01:44;96759.13;;;4.27;89.49
9281;BME280;4679;47.966;7.958;2024-01-07T14:03:45;96755.69;;;4.27;89.24
9281;BME280;4679;47.966;7.958;2024-01-07T14:05:46;96761.50;;;4.29;89.44
9281;BME280;4679;47.966;7.958;2024-01-07T14:07:48;96763.72;;;4.32;89.33
9281;BME280;4679;47.966;7.958;2024-01-07T14:09:49;96766.34;;;4.32;89.33
9281;BME280;4679;47.966;7.958;2024-01-07T14:11:51;96766.75;;;4.29;88.90
9281;BME280;4679;47.966;7.958;2024-01-07T14:13:54;96763.50;;;4.33;89.45
9281;BME280;4679;47.966;7.958;2024-01-07T14:15:56;96769.16;;;4.37;89.64
9281;BME280;4679;47.966;7.958;2024-01-07T14:17:57;96770.16;;;4.36;89.50
9281;BME280;4679;47.966;7.958;2024-01-07T14:19:59;96776.00;;;4.38;89.36
9281;BME280;4679;47.966;7.958;2024-01-07T14:22:00;96780.25;;;4.39;89.63
9281;BME280;4679;47.966;7.958;2024-01-07T14:24:02;96776.22;;;4.36;89.31
9281;BME280;4679;47.966;7.958;2024-01-07T14:26:04;96781.69;;;4.35;89.24
9281;BME280;4679;47.966;7.958;2024-01-07T14:28:05;96783.31;;;4.29;89.17
9281;BME280;4679;47.966;7.958;2024-01-07T14:30:10;96785.00;;;4.23;89.31
9281;BME280;4679;47.966;7.958;2024-01-07T14:32:11;96786.59;;;4.24;89.39
9281;BME280;4679;47.966;7.958;2024-01-07T14:34:13;96786.84;;;4.16;89.61
9281;BME280;4679;47.966;7.958;2024-01-07T14:36:14;96785.88;;;4.11;89.26
9281;BME280;4679;47.966;7.958;2024-01-07T14:38:17;96797.59;;;4.08;89.48
9281;BME280;4679;47.966;7.958;2024-01-07T14:40:19;96794.56;;;4.11;89.16
9281;BME280;4679;47.966;7.958;2024-01-07T14:42:19;96786.84;;;4.16;89.58
9281;BME280;4679;47.966;7.958;2024-01-07T14:44:21;96796.50;;;4.22;89.37
9281;BME280;4679;47.966;7.958;2024-01-07T14:46:24;96798.72;;;4.26;89.22
9281;BME280;4679;47.966;7.958;2024-01-07T14:48:25;96803.53;;;4.29;89.09
9281;BME280;4679;47.966;7.958;2024-01-07T14:50:27;96807.56;;;4.31;89.11
9281;BME280;4679;47.966;7.958;2024-01-07T14:52:28;96804.56;;;4.28;89.05
9281;BME280;4679;47.966;7.958;2024-01-07T14:54:29;96803.97;;;4.26;89.08
9281;BME280;4679;47.966;7.958;2024-01-07T14:56:33;96811.66;;;4.20;89.10
9281;BME280;4679;47.966;7.958;2024-01-07T14:58:34;96818.34;;;4.16;89.14
9281;BME280;4679;47.966;7.958;2024-01-07T15:00:36;96821.81;;;4.10;88.68
9281;BME280;4679;47.966;7.958;2024-01-07T15:02:39;96822.03;;;4.09;89.16
9281;BME280;4679;47.966;7.958;2024-01-07T15:04:40;96820.03;;;4.04;89.23
9281;BME280;4679;47.966;7.958;2024-01-07T15:06:42;96825.69;;;4.01;89.19
9281;BME280;4679;47.966;7.958;2024-01-07T15:08:46;96828.16;;;3.96;88.97
9281;BME280;4679;47.966;7.958;2024-01-07T15:10:49;96835.84;;;3.91;89.01
9281;BME280;4679;47.966;7.958;2024-01-07T15:12:50;96835.84;;;3.84;89.08
9281;BME280;4679;47.966;7.958;2024-01-07T15:14:51;96846.38;;;3.78;89.02
9281;BME280;4679;47.966;7.958;2024-01-07T15:16:53;96838.72;;;3.70;88.96
9281;BME280;4679;47.966;7.958;2024-01-07T15:18:56;96848.06;;;3.59;89.19
9281;BME280;4679;47.966;7.958;2024-01-07T15:20:58;96854.91;;;3.53;88.98
9281;BME280;4679;47.966;7.958;2024-01-07T15:22:59;96852.53;;;3.45;89.10
9281;BME280;4679;47.966;7.958;2024-01-07T15:25:01;96850.72;;;3.39;89.08
9281;BME280;4679;47.966;7.958;2024-01-07T15:27:03;96851.75;;;3.32;88.64
9281;BME280;4679;47.966;7.958;2024-01-07T15:29:05;96850.75;;;3.26;88.82
9281;BME280;4679;47.966;7.958;2024-01-07T15:31:08;96857.19;;;3.24;88.88
9281;BME280;4679;47.966;7.958;2024-01-07T15:33:09;96853.59;;;3.18;88.59
9281;BME280;4679;47.966;7.958;2024-01-07T15:35:12;96860.03;;;3.15;88.67
9281;BME280;4679;47.966;7.958;2024-01-07T15:37:14;96865.69;;;3.12;88.54
9281;BME280;4679;47.966;7.958;2024-01-07T15:39:15;96872.13;;;3.10;88.76
9281;BME280;4679;47.966;7.958;2024-01-07T15:41:18;96872.31;;;3.08;88.63
9281;BME280;4679;47.966;7.958;2024-01-07T15:43:20;96870.31;;;3.10;88.29
9281;BME280;4679;47.966;7.958;2024-01-07T15:45:21;96881.81;;;3.09;88.10
9281;BME280;4679;47.966;7.958;2024-01-07T15:47:22;96880.19;;;3.08;88.18
9281;BME280;4679;47.966;7.958;2024-01-07T15:49:24;96883.63;;;3.09;87.67
9281;BME280;4679;47.966;7.958;2024-01-07T15:51:27;96882.59;;;3.10;87.49
9281;BME280;4679;47.966;7.958;2024-01-07T15:53:28;96885.22;;;3.10;87.73
9281;BME280;4679;47.966;7.958;2024-01-07T15:55:32;96874.53;;;3.11;87.71
9281;BME280;4679;47.966;7.958;2024-01-07T15:57:33;96884.44;;;3.16;87.26
9281;BME280;4679;47.966;7.958;2024-01-07T15:59:35;96886.06;;;3.17;87.97
9281;BME280;4679;47.966;7.958;2024-01-07T16:01:36;96888.66;;;3.17;87.59
9281;BME280;4679;47.966;7.958;2024-01-07T16:03:38;96893.91;;;3.17;87.65
9281;BME280;4679;47.966;7.958;2024-01-07T16:05:39;96889.28;;;3.19;87.42
9281;BME280;4679;47.966;7.958;2024-01-07T16:07:42;96894.72;;;3.17;87.17
9281;BME280;4679;47.966;7.958;2024-01-07T16:09:44;96897.34;;;3.17;87.30
9281;BME280;4679;47.966;7.958;2024-01-07T16:11:45;96906.63;;;3.20;87.39
9281;BME280;4679;47.966;7.958;2024-01-07T16:13:47;96896.72;;;3.22;87.11
9281;BME280;4679;47.966;7.958;2024-01-07T16:15:48;96907.00;;;3.24;86.70
9281;BME280;4679;47.966;7.958;2024-01-07T16:17:49;96908.63;;;3.25;86.87
9281;BME280;4679;47.966;7.958;2024-01-07T16:19:50;96910.03;;;3.27;86.97
9281;BME280;4679;47.966;7.958;2024-01-07T16:21:51;96917.28;;;3.25;87.07
9281;BME280;4679;47.966;7.958;2024-01-07T16:23:54;96920.72;;;3.26;87.07
9281;BME280;4679;47.966;7.958;2024-01-07T16:25:56;96916.88;;;3.22;86.99
9281;BME280;4679;47.966;7.958;2024-01-07T16:27:57;96918.50;;;3.23;86.90
9281;BME280;4679;47.966;7.958;2024-01-07T16:29:59;96922.94;;;3.22;87.39
9281;BME280;4679;47.966;7.958;2024-01-07T16:32:01;96921.31;;;3.21;86.68
9281;BME280;4679;47.966;7.958;2024-01-07T16:34:03;96927.97;;;3.24;87.13
9281;BME280;4679;47.966;7.958;2024-01-07T16:36:06;96930.19;;;3.13;86.99
9281;BME280;4679;47.966;7.958;2024-01-07T16:38:08;96929.59;;;3.05;86.77
9281;BME280;4679;47.966;7.958;2024-01-07T16:40:11;96932.19;;;2.92;87.02
9281;BME280;4679;47.966;7.958;2024-01-07T16:42:13;96934.00;;;2.85;86.70
9281;BME280;4679;47.966;7.958;2024-01-07T16:44:14;96937.63;;;2.83;87.12
9281;BME280;4679;47.966;7.958;2024-01-07T16:46:15;96932.59;;;2.82;87.05
9281;BME280;4679;47.966;7.958;2024-01-07T16:48:17;96928.75;;;2.85;87.37
9281;BME280;4679;47.966;7.958;2024-01-07T16:50:18;96936.22;;;2.88;86.41
9281;BME280;4679;47.966;7.958;2024-01-07T16:52:19;96942.88;;;2.90;86.87
9281;BME280;4679;47.966;7.958;2024-01-07T16:54:21;96935.44;;;2.87;86.97
9281;BME280;4679;47.966;7.958;2024-01-07T16:56:24;96941.66;;;2.86;86.80
9281;BME280;4679;47.966;7.958;2024-01-07T16:58:25;96943.88;;;2.82;86.97
9281;BME280;4679;47.966;7.958;2024-01-07T17:00:27;96948.50;;;2.80;86.65
9281;BME280;4679;47.966;7.958;2024-01-07T17:02:29;96951.94;;;2.74;87.07
9281;BME280;4679;47.966;7.958;2024-01-07T17:04:29;96956.56;;;2.72;86.81
9281;BME280;4679;47.966;7.958;2024-01-07T17:06:31;96958.56;;;2.77;86.12
9281;BME280;4679;47.966;7.958;2024-01-07T17:08:33;96961.78;;;2.72;86.77
9281;BME280;4679;47.966;7.958;2024-01-07T17:10:35;96961.78;;;2.72;86.69
9281;BME280;4679;47.966;7.958;2024-01-07T17:12:38;96963.00;;;2.76;86.43
9281;BME280;4679;47.966;7.958;2024-01-07T17:14:39;96961.78;;;2.79;86.42
9281;BME280;4679;47.966;7.958;2024-01-07T17:16:41;96964.59;;;2.77;86.98
9281;BME280;4679;47.966;7.958;2024-01-07T17:18:42;96966.63;;;2.75;86.56
9281;BME280;4679;47.966;7.958;2024-01-07T17:20:44;96974.88;;;2.79;86.60
9281;BME280;4679;47.966;7.958;2024-01-07T17:22:46;96969.47;;;2.80;86.23
9281;BME280;4679;47.966;7.958;2024-01-07T17:24:47;96967.22;;;2.77;86.81
9281;BME280;4679;47.966;7.958;2024-01-07T17:26:49;96974.88;;;2.79;86.04
9281;BME280;4679;47.966;7.958;2024-01-07T17:28:52;96975.09;;;2.77;86.77
9281;BME280;4679;47.966;7.958;2024-01-07T17:30:53;96977.91;;;2.76;86.22
9281;BME280;4679;47.966;7.958;2024-01-07T17:32:56;96972.47;;;2.71;86.79
9281;BME280;4679;47.966;7.958;2024-01-07T17:34:57;96976.09;;;2.70;86.42
9281;BME280;4679;47.966;7.958;2024-01-07T17:36:59;96982.13;;;2.70;86.31
9281;BME280;4679;47.966;7.958;2024-01-07T17:39:00;96982.53;;;2.67;86.41
9281;BME280;4679;47.966;7.958;2024-01-07T17:41:03;96987.72;;;2.61;86.42
9281;BME280;4679;47.966;7.958;2024-01-07T17:43:05;96988.72;;;2.53;86.52
9281;BME280;4679;47.966;7.958;2024-01-07T17:45:09;96994.97;;;2.52;86.85
9281;BME280;4679;47.966;7.958;2024-01-07T17:47:12;96998.59;;;2.51;86.79
9281;BME280;4679;47.966;7.958;2024-01-07T17:49:15;97004.25;;;2.55;86.67
9281;BME280;4679;47.966;7.958;2024-01-07T17:51:18;97008.88;;;2.53;86.57
9281;BME280;4679;47.966;7.958;2024-01-07T17:53:18;97007.44;;;2.50;86.48
9281;BME280;4679;47.966;7.958;2024-01-07T17:55:20;97012.47;;;2.52;86.56
9281;BME280;4679;47.966;7.958;2024-01-07T17:57:22;97009.44;;;2.48;86.43
9281;BME280;4679;47.966;7.958;2024-01-07T17:59:23;97015.47;;;2.48;86.62
9281;BME280;4679;47.966;7.958;2024-01-07T18:01:26;97009.44;;;2.48;86.40
9281;BME280;4679;47.966;7.958;2024-01-07T18:03:27;97010.25;;;2.42;86.47
9281;BME280;4679;47.966;7.958;2024-01-07T18:05:28;97010.38;;;2.34;86.85
9281;BME280;4679;47.966;7.958;2024-01-07T18:07:30;97008.56;;;2.28;86.99
9281;BME280;4679;47.966;7.958;2024-01-07T18:09:31;97014.56;;;2.22;86.41
9281;BME280;4679;47.966;7.958;2024-01-07T18:11:33;97019.34;;;2.18;86.55
9281;BME280;4679;47.966;7.958;2024-01-07T18:13:36;97018.13;;;2.14;86.16
9281;BME280;4679;47.966;7.958;2024-01-07T18:15:36;97019.53;;;2.10;85.52
9281;BME280;4679;47.966;7.958;2024-01-07T18:17:39;97020.91;;;2.06;86.03
9281;BME280;4679;47.966;7.958;2024-01-07T18:19:42;97021.09;;;2.04;85.68
9281;BME280;4679;47.966;7.958;2024-01-07T18:21:44;97020.47;;;2.02;85.79
9281;BME280;4679;47.966;7.958;2024-01-07T18:23:45;97030.50;;;1.99;84.92
9281;BME280;4679;47.966;7.958;2024-01-07T18:25:47;97032.53;;;1.97;85.48
9281;BME280;4679;47.966;7.958;2024-01-07T18:27:49;97029.09;;;1.96;84.68
9281;BME280;4679;47.966;7.958;2024-01-07T18:29:51;97032.72;;;1.95;84.70
9281;BME280;4679;47.966;7.958;2024-01-07T18:31:55;97037.34;;;1.93;85.00
9281;BME280;4679;47.966;7.958;2024-01-07T18:33:58;97042.56;;;1.93;84.33
9281;BME280;4679;47.966;7.958;2024-01-07T18:35:59;97040.94;;;1.92;84.71
9281;BME280;4679;47.966;7.958;2024-01-07T18:38:02;97048.78;;;1.92;84.05
9281;BME280;4679;47.966;7.958;2024-01-07T18:40:04;97038.53;;;1.91;84.24
9281;BME280;4679;47.966;7.958;2024-01-07T18:42:09;97041.94;;;1.91;83.46
9281;BME280;4679;47.966;7.958;2024-01-07T18:44:11;97045.56;;;1.90;83.87
9281;BME280;4679;47.966;7.958;2024-01-07T18:46:12;97051.78;;;1.89;83.35
9281;BME280;4679;47.966;7.958;2024-01-07T18:48:14;97049.16;;;1.89;83.38
9281;BME280;4679;47.966;7.958;2024-01-07T18:50:17;97053.78;;;1.87;83.49
9281;BME280;4679;47.966;7.958;2024-01-07T18:52:19;97046.75;;;1.88;83.55
9281;BME280;4679;47.966;7.958;2024-01-07T18:54:21;97053.59;;;1.89;83.44
9281;BME280;4679;47.966;7.958;2024-01-07T18:56:21;97058.38;;;1.85;82.77
9281;BME280;4679;47.966;7.958;2024-01-07T18:58:23;97057.38;;;1.86;82.68
9281;BME280;4679;47.966;7.958;2024-01-07T19:00:25;97062.00;;;1.84;82.74
9281;BME280;4679;47.966;7.958;2024-01-07T19:02:27;97062.00;;;1.84;83.25
9281;BME280;4679;47.966;7.958;2024-01-07T19:04:29;97064.03;;;1.82;82.52
9281;BME280;4679;47.966;7.958;2024-01-07T19:06:33;97068.63;;;1.80;82.97
9281;BME280;4679;47.966;7.958;2024-01-07T19:08:34;97073.44;;;1.76;82.18
9281;BME280;4679;47.966;7.958;2024-01-07T19:10:36;97071.38;;;1.72;82.27
9281;BME280;4679;47.966;7.958;2024-01-07T19:12:37;97070.94;;;1.68;82.17
9281;BME280;4679;47.966;7.958;2024-01-07T19:14:39;97073.13;;;1.65;82.65
9281;BME280;4679;47.966;7.958;2024-01-07T19:16:41;97080.78;;;1.66;81.96
9281;BME280;4679;47.966;7.958;2024-01-07T19:18:42;97079.00;;;1.67;82.40
9281;BME280;4679;47.966;7.958;2024-01-07T19:20:44;97087.66;;;1.67;82.20
9281;BME280;4679;47.966;7.958;2024-01-07T19:22:48;97082.59;;;1.66;81.98
9281;BME280;4679;47.966;7.958;2024-01-07T19:24:49;97087.38;;;1.62;81.57
9281;BME280;4679;47.966;7.958;2024-01-07T19:26:50;97087.38;;;1.62;82.29
9281;BME280;4679;47.966;7.958;2024-01-07T19:28:51;97092.63;;;1.62;81.79
9281;BME280;4679;47.966;7.958;2024-01-07T19:30:53;97097.84;;;1.62;81.76